Time;durP1;ratioP1;P1;durP2;ratioP2;P2;SDS_P1;SDS_P2;PMS_P1;PMS_P2;Temp;Humidity;BMP_temperature;BMP_pressure;BME280_temperature;BME280_humidity;BME280_pressure;Samples;Min_cycle;Max_cycle;Signal;HPM_P1;HPM_P2
2021/11/10 00:02:14;;;;;;;7.38;2.10;;;;;;;;;;5082651;28;20056;-58
2021/11/10 00:04:58;;;;;;;6.50;2.13;;;;;;;;;;5064027;28;20086;-60
2021/11/10 00:07:23;;;;;;;;;;;;;;;;;;5067305;28;20143;-59
2021/11/10 00:09:49;;;;;;;5.90;2.00;;;;;;;;;;5073309;28;20051;-57
2021/11/10 00:12:15;;;;;;;10.25;1.95;;;;;;;;;;5076925;28;20041;-59
2021/11/10 00:14:41;;;;;;;10.93;2.65;;;;;;;;;;5067672;28;20047;-58
2021/11/10 00:17:10;;;;;;;6.80;2.15;;;;;;;;;;5067901;28;20148;-59
2021/11/10 00:19:37;;;;;;;5.60;2.28;;;;;;;;;;5069527;28;20408;-58
2021/11/10 00:22:03;;;;;;;5.43;2.38;;;;;;;;;;5068994;28;20558;-59
2021/11/10 00:24:29;;;;;;;11.27;2.30;;;;;;;;;;5069184;28;20113;-58
2021/11/10 00:26:55;;;;;;;5.57;2.50;;;;;;;;;;5074190;28;20048;-56
2021/11/10 00:29:21;;;;;;;14.88;3.47;;;;;;;;;;5072106;27;20040;-58
2021/11/10 00:31:49;;;;;;;17.08;3.00;;;;;;;;;;5070815;28;20117;-59
2021/11/10 00:34:18;;;;;;;14.80;2.83;;;;;;;;;;5071481;28;20108;-58
2021/11/10 00:36:45;;;;;;;6.55;2.55;;;;;;;;;;5079305;28;20044;-57
2021/11/10 00:39:11;;;;;;;8.27;2.80;;;;;;;;;;5072141;28;20115;-60
2021/11/10 00:41:37;;;;;;;10.85;3.15;;;;;;;;;;5074766;28;20171;-58
2021/11/10 00:44:03;;;;;;;14.25;3.67;;;;;;;;;;5071313;28;20044;-55
2021/11/10 00:46:29;;;;;;;15.30;4.35;;;;;;;;;;5064549;28;20051;-57
2021/11/10 00:48:56;;;;;;;19.17;3.80;;;;;;;;;;5089161;28;20086;-57
2021/11/10 00:51:22;;;;;;;15.15;3.90;;;;;;;;;;5070881;28;20120;-57
2021/11/10 00:53:48;;;;;;;9.35;3.40;;;;;;;;;;5056499;28;20032;-59
2021/11/10 00:56:14;;;;;;;14.43;4.20;;;;;;;;;;5087526;28;20044;-59
2021/11/10 00:58:44;;;;;;;20.35;4.43;;;;;;;;;;5082591;28;20500;-60
2021/11/10 01:01:10;;;;;;;19.83;4.43;;;;;;;;;;5087496;28;20248;-59
2021/11/10 01:03:36;;;;;;;8.13;3.80;;;;;;;;;;5080753;28;20051;-58
2021/11/10 01:06:02;;;;;;;16.83;4.28;;;;;;;;;;5089241;28;20036;-59
2021/11/10 01:08:28;;;;;;;10.38;3.65;;;;;;;;;;5092156;28;20051;-58
2021/11/10 01:10:55;;;;;;;18.60;4.03;;;;;;;;;;5076721;28;20169;-62
2021/11/10 01:13:21;;;;;;;10.23;3.60;;;;;;;;;;5093516;28;20104;-58
2021/11/10 01:15:47;;;;;;;10.55;3.88;;;;;;;;;;5095590;28;20452;-60
2021/11/10 01:18:13;;;;;;;15.25;4.03;;;;;;;;;;5092908;28;20035;-56
2021/11/10 01:20:40;;;;;;;10.32;3.63;;;;;;;;;;5094934;28;20032;-58
2021/11/10 01:23:09;;;;;;;11.55;3.83;;;;;;;;;;5097125;28;20032;-57
2021/11/10 01:25:36;;;;;;;13.98;3.75;;;;;;;;;;5069811;28;20099;-56
2021/11/10 01:28:03;;;;;;;15.68;3.67;;;;;;;;;;5087378;28;20092;-56
2021/11/10 01:30:29;;;;;;;20.83;4.10;;;;;;;;;;5092806;28;20029;-58
2021/11/10 01:32:55;;;;;;;15.55;4.05;;;;;;;;;;5092958;28;20046;-55
2021/11/10 01:35:22;;;;;;;9.40;3.25;;;;;;;;;;5091391;28;20135;-59
2021/11/10 01:37:48;;;;;;;17.83;3.35;;;;;;;;;;5091792;28;20059;-58
2021/11/10 01:40:15;;;;;;;13.95;3.42;;;;;;;;;;5091769;28;20043;-59
2021/11/10 01:42:42;;;;;;;16.45;3.80;;;;;;;;;;5092036;28;20152;-60
2021/11/10 01:45:09;;;;;;;10.05;4.07;;;;;;;;;;5092161;28;20673;-59
2021/11/10 01:47:35;;;;;;;11.40;3.35;;;;;;;;;;5090350;28;20703;-60
2021/11/10 01:50:05;;;;;;;11.95;3.35;;;;;;;;;;5086971;28;20526;-59
2021/11/10 01:52:31;;;;;;;12.05;3.55;;;;;;;;;;5091950;28;20143;-60
2021/11/10 01:54:57;;;;;;;14.85;4.43;;;;;;;;;;5092007;28;20028;-58
2021/11/10 01:57:23;;;;;;;13.57;4.32;;;;;;;;;;5092466;28;20047;-56
2021/11/10 02:00:00;;;;;;;17.52;4.65;;;;;;;;;;5092164;28;20042;-58
2021/11/10 02:02:30;;;;;;;8.43;3.85;;;;;;;;;;5092815;28;20036;-59
2021/11/10 02:04:59;;;;;;;16.60;4.15;;;;;;;;;;5084571;28;20193;-55
2021/11/10 02:07:26;;;;;;;8.48;3.75;;;;;;;;;;5065967;28;20058;-60
2021/11/10 02:09:52;;;;;;;10.30;3.22;;;;;;;;;;5095768;28;20032;-60
2021/11/10 02:12:19;;;;;;;11.02;3.70;;;;;;;;;;5074412;28;20040;-60
2021/11/10 02:14:45;;;;;;;11.52;3.63;;;;;;;;;;5075119;28;20040;-57
2021/11/10 02:17:20;;;;;;;15.57;3.60;;;;;;;;;;5065089;28;20067;-58
2021/11/10 02:22:39;;;;;;;9.95;3.53;;;;;;;;;;4198343;22;22139;-58
2021/11/10 02:25:08;;;;;;;11.85;2.83;;;;;;;;;;5049902;22;20044;-54
2021/11/10 02:27:35;;;;;;;12.10;3.38;;;;;;;;;;5017252;28;20583;-57
2021/11/10 02:30:02;;;;;;;13.65;3.30;;;;;;;;;;5050365;28;20476;-56
2021/11/10 02:32:28;;;;;;;14.73;3.75;;;;;;;;;;5034745;28;20037;-57
2021/11/10 02:34:54;;;;;;;8.15;4.10;;;;;;;;;;5043386;28;20617;-55
2021/11/10 02:37:20;;;;;;;13.85;3.42;;;;;;;;;;5036602;28;20056;-56
2021/11/10 02:39:46;;;;;;;18.95;3.70;;;;;;;;;;5056435;28;20040;-56
2021/11/10 02:42:14;;;;;;;6.53;2.95;;;;;;;;;;5048716;28;20048;-56
2021/11/10 02:44:40;;;;;;;10.25;2.63;;;;;;;;;;5020494;28;20483;-55
2021/11/10 02:47:06;;;;;;;4.68;2.00;;;;;;;;;;5037975;28;20094;-56
2021/11/10 02:49:32;;;;;;;6.43;2.42;;;;;;;;;;5036730;28;20396;-57
2021/11/10 02:52:01;;;;;;;4.03;1.60;;;;;;;;;;5048818;28;20056;-56
2021/11/10 02:54:28;;;;;;;32.60;2.83;;;;;;;;;;5057041;28;20536;-54
2021/11/10 02:56:55;;;;;;;3.05;1.35;;;;;;;;;;5034399;28;20048;-54
2021/11/10 02:59:21;;;;;;;3.45;1.20;;;;;;;;;;5044351;28;20047;-58
2021/11/10 03:02:07;;;;;;;3.25;1.20;;;;;;;;;;5009311;28;20588;-56
2021/11/10 03:04:34;;;;;;;2.80;0.80;;;;;;;;;;5009551;28;22169;-56
2021/11/10 03:07:01;;;;;;;12.18;1.15;;;;;;;;;;5015659;28;20045;-56
2021/11/10 03:09:28;;;;;;;7.05;1.05;;;;;;;;;;5015184;28;20030;-57
2021/11/10 03:11:57;;;;;;;5.05;0.98;;;;;;;;;;5013303;28;20041;-56
2021/11/10 03:14:23;;;;;;;10.00;1.10;;;;;;;;;;4996849;28;20041;-57
2021/11/10 03:16:49;;;;;;;2.63;0.80;;;;;;;;;;5008780;28;20079;-58
2021/11/10 03:19:15;;;;;;;2.25;0.60;;;;;;;;;;5014995;28;20159;-59
2021/11/10 03:21:41;;;;;;;2.35;0.70;;;;;;;;;;4995925;28;20632;-57
2021/11/10 03:24:07;;;;;;;10.57;1.13;;;;;;;;;;5004445;28;20074;-59
2021/11/10 03:26:34;;;;;;;4.07;0.82;;;;;;;;;;5004346;28;20049;-54
2021/11/10 03:29:03;;;;;;;1.38;0.50;;;;;;;;;;4998535;28;20088;-57
2021/11/10 03:31:33;;;;;;;3.35;0.60;;;;;;;;;;4996844;28;20576;-57
2021/11/10 03:34:00;;;;;;;3.95;0.80;;;;;;;;;;5043232;28;20041;-58
2021/11/10 03:36:26;;;;;;;3.42;0.65;;;;;;;;;;5046156;28;20041;-59
2021/11/10 03:38:51;;;;;;;2.55;0.55;;;;;;;;;;5039139;28;20055;-57
2021/11/10 03:41:17;;;;;;;1.77;0.70;;;;;;;;;;5027787;28;20040;-59
2021/11/10 03:43:43;;;;;;;1.63;0.50;;;;;;;;;;5038303;28;20040;-55
2021/11/10 03:46:09;;;;;;;1.50;0.52;;;;;;;;;;5037259;28;20037;-55
2021/11/10 03:48:35;;;;;;;2.83;0.55;;;;;;;;;;5036599;28;20056;-54
2021/11/10 03:51:01;;;;;;;2.42;0.60;;;;;;;;;;5036460;28;20088;-54
2021/11/10 03:53:27;;;;;;;5.43;0.60;;;;;;;;;;5035592;28;21211;-54
2021/11/10 03:55:53;;;;;;;2.03;0.60;;;;;;;;;;5037079;28;20194;-58
2021/11/10 03:58:19;;;;;;;1.58;0.52;;;;;;;;;;5036814;28;20408;-57
2021/11/10 04:00:45;;;;;;;1.75;0.60;;;;;;;;;;5041984;28;20559;-56
2021/11/10 04:03:11;;;;;;;1.20;0.43;;;;;;;;;;5041912;28;20086;-57
2021/11/10 04:05:37;;;;;;;1.63;0.60;;;;;;;;;;5043650;28;20044;-55
2021/11/10 04:08:03;;;;;;;2.88;0.77;;;;;;;;;;5044833;28;20060;-55
2021/11/10 04:10:29;;;;;;;1.85;0.55;;;;;;;;;;5042410;28;20033;-59
2021/11/10 04:12:55;;;;;;;1.25;0.40;;;;;;;;;;5026537;28;20049;-58
2021/11/10 04:15:21;;;;;;;2.20;0.60;;;;;;;;;;5040477;28;20048;-58
2021/11/10 04:17:47;;;;;;;3.28;0.60;;;;;;;;;;5049739;28;20029;-58
2021/11/10 04:20:12;;;;;;;2.20;0.50;;;;;;;;;;5043669;28;20044;-58
2021/11/10 04:22:38;;;;;;;0.73;0.40;;;;;;;;;;5057408;28;20045;-57
2021/11/10 04:25:04;;;;;;;1.52;0.50;;;;;;;;;;5053287;28;20447;-58
2021/11/10 04:27:30;;;;;;;1.25;0.50;;;;;;;;;;5048690;28;20049;-57
2021/11/10 04:29:56;;;;;;;1.00;0.50;;;;;;;;;;5059699;28;20044;-56
2021/11/10 04:32:22;;;;;;;2.90;0.73;;;;;;;;;;5035336;28;20047;-57
2021/11/10 04:34:48;;;;;;;1.63;0.60;;;;;;;;;;5047045;28;20036;-56
2021/11/10 04:37:15;;;;;;;1.65;0.50;;;;;;;;;;5043467;28;20075;-56
2021/11/10 04:39:41;;;;;;;1.33;0.50;;;;;;;;;;5058825;28;20064;-55
2021/11/10 04:42:08;;;;;;;0.98;0.43;;;;;;;;;;5060168;28;20231;-57
2021/11/10 04:44:34;;;;;;;0.95;0.40;;;;;;;;;;5059195;28;20395;-57
2021/11/10 04:47:00;;;;;;;6.18;0.50;;;;;;;;;;5054241;28;20124;-56
2021/11/10 04:49:29;;;;;;;1.30;0.50;;;;;;;;;;5042453;28;20128;-57
2021/11/10 04:51:58;;;;;;;7.15;0.68;;;;;;;;;;5039619;28;20501;-54
2021/11/10 04:54:29;;;;;;;1.45;0.50;;;;;;;;;;5028235;28;20041;-56
2021/11/10 04:56:55;;;;;;;1.02;0.45;;;;;;;;;;5054558;28;20052;-58
2021/11/10 04:59:21;;;;;;;2.97;0.90;;;;;;;;;;5046885;28;20047;-58
2021/11/10 05:04:30;;;;;;;;;;;;;;;;;;5046039;28;20040;-58
2021/11/10 05:06:56;;;;;;;1.85;0.60;;;;;;;;;;5047301;28;19921;-58
2021/11/10 05:09:22;;;;;;;1.67;0.50;;;;;;;;;;5038698;28;20677;-55
2021/11/10 05:11:48;;;;;;;1.98;0.63;;;;;;;;;;5037720;28;20045;-56
2021/11/10 05:14:14;;;;;;;1.25;0.40;;;;;;;;;;5034104;28;20090;-53
2021/11/10 05:16:40;;;;;;;1.05;0.40;;;;;;;;;;5045989;28;20075;-57
2021/11/10 05:19:06;;;;;;;1.85;0.57;;;;;;;;;;5054283;28;20443;-56
2021/11/10 05:21:32;;;;;;;1.88;0.43;;;;;;;;;;5057239;28;20033;-56
2021/11/10 05:23:58;;;;;;;0.95;0.50;;;;;;;;;;5031992;28;20110;-57
2021/11/10 05:26:24;;;;;;;1.05;0.40;;;;;;;;;;5056495;28;20051;-54
2021/11/10 05:28:49;;;;;;;1.15;0.40;;;;;;;;;;5044352;28;20052;-57
2021/11/10 05:31:15;;;;;;;4.10;0.60;;;;;;;;;;5058801;28;20512;-57
2021/11/10 05:33:41;;;;;;;2.00;0.52;;;;;;;;;;5054163;28;20501;-57
2021/11/10 05:36:07;;;;;;;1.17;0.40;;;;;;;;;;5053514;28;20052;-56
2021/11/10 05:38:33;;;;;;;1.05;0.40;;;;;;;;;;5055160;28;20393;-56
2021/11/10 05:40:59;;;;;;;1.42;0.50;;;;;;;;;;5046566;28;20045;-58
2021/11/10 05:43:24;;;;;;;1.42;0.40;;;;;;;;;;5038014;28;20520;-52
2021/11/10 05:45:50;;;;;;;2.13;0.68;;;;;;;;;;5038106;28;20523;-56
2021/11/10 05:48:16;;;;;;;1.75;0.50;;;;;;;;;;5036637;28;20655;-57
2021/11/10 05:50:43;;;;;;;0.75;0.40;;;;;;;;;;5037504;28;20124;-55
2021/11/10 05:53:09;;;;;;;10.35;0.60;;;;;;;;;;5037565;28;20060;-53
2021/11/10 05:55:35;;;;;;;1.65;0.43;;;;;;;;;;5037130;28;20745;-56
2021/11/10 05:58:01;;;;;;;1.02;0.40;;;;;;;;;;5044832;28;20036;-55
2021/11/10 06:00:27;;;;;;;0.75;0.40;;;;;;;;;;5039387;28;20036;-55
2021/11/10 06:02:54;;;;;;;1.83;0.50;;;;;;;;;;5041809;28;20165;-57
2021/11/10 06:05:20;;;;;;;1.70;0.50;;;;;;;;;;5056641;28;20037;-56
2021/11/10 06:07:46;;;;;;;1.05;0.40;;;;;;;;;;5054154;28;20041;-57
2021/11/10 06:10:13;;;;;;;1.35;0.40;;;;;;;;;;5054667;28;20074;-57
2021/11/10 06:12:39;;;;;;;1.83;0.50;;;;;;;;;;5056005;28;20037;-57
2021/11/10 06:15:05;;;;;;;2.00;0.50;;;;;;;;;;5019769;28;20526;-58
2021/11/10 06:17:31;;;;;;;5.22;0.60;;;;;;;;;;5041344;28;20036;-57
2021/11/10 06:20:00;;;;;;;1.05;0.40;;;;;;;;;;5052043;28;20974;-55
2021/11/10 06:22:26;;;;;;;0.95;0.40;;;;;;;;;;5047701;28;20459;-56
2021/11/10 06:24:52;;;;;;;1.63;0.43;;;;;;;;;;5034838;28;20056;-60
2021/11/10 06:27:18;;;;;;;1.17;0.40;;;;;;;;;;5040392;28;20044;-55
2021/11/10 06:29:44;;;;;;;1.05;0.38;;;;;;;;;;5018583;28;20045;-57
2021/11/10 06:32:10;;;;;;;1.45;0.50;;;;;;;;;;5035634;28;20043;-56
2021/11/10 06:34:36;;;;;;;4.45;0.50;;;;;;;;;;5045418;28;20048;-57
2021/11/10 06:37:02;;;;;;;0.93;0.43;;;;;;;;;;5056687;28;20037;-56
2021/11/10 06:39:28;;;;;;;0.40;0.30;;;;;;;;;;5041772;28;20064;-57
2021/11/10 06:41:54;;;;;;;0.52;0.30;;;;;;;;;;5042723;28;20048;-57
2021/11/10 06:44:20;;;;;;;1.15;0.40;;;;;;;;;;5035058;28;20052;-57
2021/11/10 06:46:46;;;;;;;1.25;0.40;;;;;;;;;;5035371;28;20519;-57
2021/11/10 06:49:11;;;;;;;0.98;0.40;;;;;;;;;;5037019;28;20672;-57
2021/11/10 06:51:38;;;;;;;1.65;0.52;;;;;;;;;;5035467;28;20531;-56
2021/11/10 06:54:04;;;;;;;1.33;0.50;;;;;;;;;;5035455;28;20056;-57
2021/11/10 06:56:30;;;;;;;1.13;0.40;;;;;;;;;;5035708;28;20199;-57
2021/11/10 06:58:57;;;;;;;1.13;0.50;;;;;;;;;;5033361;28;20040;-57
2021/11/10 07:01:22;;;;;;;1.48;0.43;;;;;;;;;;5012637;28;20041;-55
2021/11/10 07:03:48;;;;;;;2.35;0.60;;;;;;;;;;5034673;28;20044;-57
2021/11/10 07:06:15;;;;;;;1.73;0.50;;;;;;;;;;5036528;28;20037;-56
2021/11/10 07:08:41;;;;;;;1.27;0.50;;;;;;;;;;5035129;28;20560;-57
2021/11/10 07:11:06;;;;;;;1.17;0.50;;;;;;;;;;5035923;28;20048;-55
2021/11/10 07:13:32;;;;;;;1.65;0.43;;;;;;;;;;5035015;28;20048;-58
2021/11/10 07:15:58;;;;;;;1.05;0.40;;;;;;;;;;5042268;28;20128;-56
2021/11/10 07:18:24;;;;;;;0.80;0.40;;;;;;;;;;5035883;28;20033;-58
2021/11/10 07:20:49;;;;;;;0.88;0.40;;;;;;;;;;5045289;28;20041;-54
2021/11/10 07:23:15;;;;;;;5.75;0.40;;;;;;;;;;4949079;28;2415154;-55
2021/11/10 07:25:41;;;;;;;1.90;0.60;;;;;;;;;;5052744;28;20134;-57
2021/11/10 07:28:07;;;;;;;4.45;0.50;;;;;;;;;;5043885;28;20044;-54
2021/11/10 07:30:33;;;;;;;2.03;0.50;;;;;;;;;;5053867;28;20101;-56
2021/11/10 07:32:59;;;;;;;1.27;0.60;;;;;;;;;;5050217;28;20041;-56
2021/11/10 07:35:25;;;;;;;0.73;0.40;;;;;;;;;;5050161;28;20486;-56
2021/11/10 07:37:51;;;;;;;3.38;0.60;;;;;;;;;;5060132;28;20037;-56
2021/11/10 07:40:17;;;;;;;1.65;0.50;;;;;;;;;;5060122;28;20086;-56
2021/11/10 07:42:44;;;;;;;1.60;0.52;;;;;;;;;;5047273;28;20488;-55
2021/11/10 07:45:15;;;;;;;1.63;0.50;;;;;;;;;;5040320;28;20112;-53
2021/11/10 07:47:41;;;;;;;1.73;0.50;;;;;;;;;;5038900;28;20446;-54
2021/11/10 07:50:08;;;;;;;1.58;0.50;;;;;;;;;;5041353;28;20129;-56
2021/11/10 07:52:34;;;;;;;0.68;0.40;;;;;;;;;;5039303;28;20408;-57
2021/11/10 07:55:00;;;;;;;1.50;0.52;;;;;;;;;;5040342;28;20061;-55
2021/11/10 07:57:26;;;;;;;3.85;0.50;;;;;;;;;;5039441;28;20036;-54
2021/11/10 07:59:52;;;;;;;0.98;0.43;;;;;;;;;;5040113;28;20052;-54
2021/11/10 08:02:19;;;;;;;1.45;0.50;;;;;;;;;;5041172;28;20532;-56
2021/11/10 08:04:46;;;;;;;1.13;0.40;;;;;;;;;;5059939;28;20049;-55
2021/11/10 08:07:11;;;;;;;1.70;0.50;;;;;;;;;;5049858;28;20460;-55
2021/11/10 08:09:37;;;;;;;8.30;0.50;;;;;;;;;;5055694;28;20115;-55
2021/11/10 08:12:03;;;;;;;2.03;0.50;;;;;;;;;;5040364;28;20855;-55
2021/11/10 08:14:29;;;;;;;0.77;0.30;;;;;;;;;;5039219;28;20082;-56
2021/11/10 08:16:55;;;;;;;1.45;0.43;;;;;;;;;;5037953;28;20114;-57
2021/11/10 08:19:21;;;;;;;1.17;0.43;;;;;;;;;;5047156;28;20143;-56
2021/11/10 08:21:47;;;;;;;1.83;0.52;;;;;;;;;;5047483;28;20572;-55
2021/11/10 08:24:13;;;;;;;0.38;0.30;;;;;;;;;;5036397;28;20045;-54
2021/11/10 08:26:38;;;;;;;2.97;0.60;;;;;;;;;;5057938;28;20044;-56
2021/11/10 08:29:04;;;;;;;1.75;0.50;;;;;;;;;;5033464;28;20136;-56
2021/11/10 08:31:30;;;;;;;0.90;0.40;;;;;;;;;;5044574;28;20033;-56
2021/11/10 08:33:57;;;;;;;1.52;0.50;;;;;;;;;;5060634;28;20046;-57
2021/11/10 08:36:23;;;;;;;3.35;1.00;;;;;;;;;;5048311;28;20056;-55
2021/11/10 08:38:49;;;;;;;1.92;0.55;;;;;;;;;;5054773;28;20142;-56
2021/11/10 08:41:16;;;;;;;12.60;7.10;;;;;;;;;;5040121;28;20037;-56
2021/11/10 08:43:42;;;;;;;42.63;27.05;;;;;;;;;;5055315;28;20270;-56
2021/11/10 08:46:08;;;;;;;24.27;16.23;;;;;;;;;;5053712;28;20508;-55
2021/11/10 08:48:34;;;;;;;43.78;28.58;;;;;;;;;;5056876;28;20044;-54
2021/11/10 08:50:59;;;;;;;12.45;5.18;;;;;;;;;;5057797;28;20081;-57
2021/11/10 08:53:25;;;;;;;2.55;0.88;;;;;;;;;;5057133;28;20067;-55
2021/11/10 08:55:53;;;;;;;2.72;1.00;;;;;;;;;;5046210;28;20049;-57
2021/11/10 08:58:19;;;;;;;2.85;1.08;;;;;;;;;;5038859;28;20560;-56
2021/11/10 09:00:46;;;;;;;4.47;1.90;;;;;;;;;;5030647;28;20059;-57
2021/11/10 09:03:13;;;;;;;2.28;0.85;;;;;;;;;;5056533;28;20188;-53
2021/11/10 09:05:39;;;;;;;3.22;0.77;;;;;;;;;;5041173;28;20183;-54
2021/11/10 09:08:05;;;;;;;2.75;0.77;;;;;;;;;;5039736;28;20065;-56
2021/11/10 09:10:33;;;;;;;5.18;0.80;;;;;;;;;;5034599;28;20144;-55
2021/11/10 09:12:59;;;;;;;8.80;0.90;;;;;;;;;;5049309;28;20037;-56
2021/11/10 09:15:25;;;;;;;5.13;0.90;;;;;;;;;;5039247;28;20048;-57
2021/11/10 09:17:51;;;;;;;3.95;1.15;;;;;;;;;;5017015;28;20551;-54
2021/11/10 09:20:18;;;;;;;2.45;0.70;;;;;;;;;;5039086;28;20052;-55
2021/11/10 09:22:45;;;;;;;3.40;0.75;;;;;;;;;;5055537;28;20036;-53
2021/11/10 09:25:11;;;;;;;1.73;0.50;;;;;;;;;;5040507;28;20585;-57
2021/11/10 09:27:39;;;;;;;3.97;1.85;;;;;;;;;;5054221;28;20668;-57
2021/11/10 09:30:05;;;;;;;2.92;0.60;;;;;;;;;;5062836;28;20037;-57
2021/11/10 09:32:32;;;;;;;8.05;2.33;;;;;;;;;;5043475;28;20055;-57
2021/11/10 09:34:58;;;;;;;2.83;0.85;;;;;;;;;;5040884;28;20044;-54
2021/11/10 09:37:23;;;;;;;1.40;0.52;;;;;;;;;;5035950;28;20037;-53
2021/11/10 09:39:49;;;;;;;4.55;0.80;;;;;;;;;;5046404;28;20041;-53
2021/11/10 09:42:16;;;;;;;2.63;0.70;;;;;;;;;;5048713;28;20029;-56
2021/11/10 09:44:42;;;;;;;1.95;0.60;;;;;;;;;;5036713;28;21019;-53
2021/11/10 09:47:08;;;;;;;2.25;0.57;;;;;;;;;;5037929;28;20037;-53
2021/11/10 09:49:34;;;;;;;2.80;0.57;;;;;;;;;;5037977;28;20491;-55
2021/11/10 09:52:00;;;;;;;2.33;0.73;;;;;;;;;;5039679;28;20045;-55
2021/11/10 09:54:26;;;;;;;6.25;0.68;;;;;;;;;;5037796;28;20059;-57
2021/11/10 09:56:54;;;;;;;2.92;0.52;;;;;;;;;;5037532;28;20041;-55
2021/11/10 09:59:20;;;;;;;6.40;0.77;;;;;;;;;;5037615;28;20037;-54
2021/11/10 10:01:47;;;;;;;2.05;0.50;;;;;;;;;;5033217;28;20078;-53
2021/11/10 10:04:13;;;;;;;1.65;0.50;;;;;;;;;;5058567;28;20036;-57
2021/11/10 10:06:40;;;;;;;1.35;0.60;;;;;;;;;;5058393;28;20120;-55
2021/11/10 10:09:06;;;;;;;1.45;0.50;;;;;;;;;;5058543;28;20053;-57
2021/11/10 10:11:32;;;;;;;3.88;0.50;;;;;;;;;;5050251;28;20052;-56
2021/11/10 10:13:58;;;;;;;1.23;0.50;;;;;;;;;;5059655;28;20040;-54
2021/11/10 10:16:25;;;;;;;1.77;0.65;;;;;;;;;;5057980;28;20571;-57
2021/11/10 10:19:02;;;;;;;1.98;0.60;;;;;;;;;;5049556;28;20040;-57
2021/11/10 10:21:28;;;;;;;1.00;0.43;;;;;;;;;;5055688;28;20044;-54
2021/11/10 10:23:54;;;;;;;2.03;0.60;;;;;;;;;;5036959;28;20049;-57
2021/11/10 10:26:22;;;;;;;2.13;0.57;;;;;;;;;;5045261;28;20048;-53
2021/11/10 10:28:50;;;;;;;1.00;0.50;;;;;;;;;;5050372;28;20827;-57
2021/11/10 10:31:20;;;;;;;2.08;0.50;;;;;;;;;;5049414;28;20041;-57
2021/11/10 10:33:49;;;;;;;1.92;0.50;;;;;;;;;;5048004;28;20043;-56
2021/11/10 10:36:16;;;;;;;1.50;0.57;;;;;;;;;;5056686;28;20118;-57
2021/11/10 10:38:46;;;;;;;0.95;0.47;;;;;;;;;;5056817;28;20046;-58
2021/11/10 10:41:12;;;;;;;1.38;0.45;;;;;;;;;;5057014;28;20048;-57
2021/11/10 10:43:42;;;;;;;1.25;0.40;;;;;;;;;;5053525;28;20072;-58
2021/11/10 10:46:08;;;;;;;1.95;0.60;;;;;;;;;;5037358;28;20397;-58
2021/11/10 10:48:35;;;;;;;0.90;0.40;;;;;;;;;;5036902;28;20053;-57
2021/11/10 10:51:03;;;;;;;1.52;0.50;;;;;;;;;;5036828;28;20112;-57
2021/11/10 10:53:47;;;;;;;0.85;0.40;;;;;;;;;;5035645;28;20037;-58
2021/11/10 10:56:15;;;;;;;2.25;0.60;;;;;;;;;;5036201;28;20400;-54
2021/11/10 10:58:41;;;;;;;5.00;0.60;;;;;;;;;;5044447;28;20106;-55
2021/11/10 11:01:29;;;;;;;2.72;0.70;;;;;;;;;;5036494;28;20041;-56
2021/11/10 11:04:02;;;;;;;1.45;0.50;;;;;;;;;;5050126;28;20044;-56
2021/11/10 11:06:29;;;;;;;1.57;0.50;;;;;;;;;;5056173;28;20045;-55
2021/11/10 11:08:59;;;;;;;3.17;0.50;;;;;;;;;;5056749;28;20105;-57
2021/11/10 11:11:36;;;;;;;1.67;0.50;;;;;;;;;;5055914;28;20501;-56
2021/11/10 11:14:02;;;;;;;1.70;0.50;;;;;;;;;;5055820;28;20039;-56
2021/11/10 11:16:35;;;;;;;0.82;0.40;;;;;;;;;;5054779;28;20162;-56
2021/11/10 11:19:15;;;;;;;1.25;0.50;;;;;;;;;;5019106;28;20584;-57
2021/11/10 11:21:48;;;;;;;1.77;0.52;;;;;;;;;;5056660;28;20052;-57
2021/11/10 11:24:32;;;;;;;0.93;0.45;;;;;;;;;;5056244;28;20052;-55
2021/11/10 11:27:09;;;;;;;2.17;0.50;;;;;;;;;;5043049;28;21842;-57
2021/11/10 11:29:35;;;;;;;0.93;0.40;;;;;;;;;;5025029;28;20056;-57
2021/11/10 11:32:01;;;;;;;1.35;0.50;;;;;;;;;;5028197;28;20041;-55
2021/11/10 11:34:44;;;;;;;1.80;0.60;;;;;;;;;;5029357;28;20072;-54
2021/11/10 11:37:10;;;;;;;1.35;0.45;;;;;;;;;;5049908;28;20824;-53
2021/11/10 11:39:36;;;;;;;0.88;0.40;;;;;;;;;;5044099;28;20037;-55
2021/11/10 11:42:02;;;;;;;1.38;0.43;;;;;;;;;;5035992;28;20029;-57
2021/11/10 11:44:28;;;;;;;2.70;0.50;;;;;;;;;;5052993;28;20074;-56
2021/11/10 11:46:54;;;;;;;2.50;0.60;;;;;;;;;;5055653;28;20037;-56
2021/11/10 11:49:19;;;;;;;2.70;0.65;;;;;;;;;;5038063;28;20172;-54
2021/11/10 11:51:45;;;;;;;1.60;0.50;;;;;;;;;;5036850;28;20049;-55
2021/11/10 11:54:12;;;;;;;1.88;0.50;;;;;;;;;;5036723;28;20424;-56
2021/11/10 11:56:39;;;;;;;1.30;0.60;;;;;;;;;;5036406;28;20052;-57
2021/11/10 11:59:08;;;;;;;1.25;0.45;;;;;;;;;;5019899;28;20461;-56
2021/11/10 12:01:36;;;;;;;5.90;0.75;;;;;;;;;;5041495;28;20036;-56
2021/11/10 12:04:07;;;;;;;3.80;0.60;;;;;;;;;;5036639;28;20044;-56
2021/11/10 12:06:53;;;;;;;1.23;0.40;;;;;;;;;;5037676;28;20037;-56
2021/11/10 12:09:20;;;;;;;1.80;0.55;;;;;;;;;;5037756;28;20171;-56
2021/11/10 12:11:51;;;;;;;1.15;0.40;;;;;;;;;;5038272;28;20033;-54
2021/11/10 12:14:21;;;;;;;1.70;0.60;;;;;;;;;;5018443;28;20041;-56
2021/11/10 12:16:49;;;;;;;3.70;0.63;;;;;;;;;;5055404;28;20609;-56
2021/11/10 12:19:20;;;;;;;1.60;0.50;;;;;;;;;;5044349;28;20047;-58
2021/11/10 12:21:54;;;;;;;2.13;0.70;;;;;;;;;;5056933;28;20388;-56
2021/11/10 12:24:21;;;;;;;1.67;0.60;;;;;;;;;;5042542;28;20738;-54
2021/11/10 12:27:06;;;;;;;2.03;0.60;;;;;;;;;;5056237;28;20123;-56
2021/11/10 12:29:50;;;;;;;1.15;0.50;;;;;;;;;;5038630;28;20168;-56
2021/11/10 12:32:23;;;;;;;2.05;0.60;;;;;;;;;;5045249;28;20148;-56
2021/11/10 12:34:50;;;;;;;1.58;0.50;;;;;;;;;;5039758;28;20055;-55
2021/11/10 12:37:23;;;;;;;3.03;0.63;;;;;;;;;;5056387;28;20831;-55
2021/11/10 12:39:58;;;;;;;3.63;0.77;;;;;;;;;;5041052;28;20048;-56
2021/11/10 12:42:40;;;;;;;1.30;0.50;;;;;;;;;;5058644;28;20064;-56
2021/11/10 12:45:06;;;;;;;5.22;0.63;;;;;;;;;;5059268;28;20469;-55
2021/11/10 12:47:46;;;;;;;1.88;0.57;;;;;;;;;;5040767;28;20079;-57
2021/11/10 12:50:31;;;;;;;2.05;0.70;;;;;;;;;;5060043;28;20064;-56
2021/11/10 12:52:58;;;;;;;2.40;0.80;;;;;;;;;;5060532;28;20045;-55
2021/11/10 12:55:27;;;;;;;3.15;0.60;;;;;;;;;;5050256;28;20064;-54
2021/11/10 12:57:56;;;;;;;9.27;0.90;;;;;;;;;;5055467;28;20151;-56
2021/11/10 13:00:22;;;;;;;1.95;0.60;;;;;;;;;;5039258;28;20053;-55
2021/11/10 13:02:54;;;;;;;2.22;0.75;;;;;;;;;;5046759;28;20037;-56
2021/11/10 13:05:29;;;;;;;1.90;0.70;;;;;;;;;;5040745;28;20037;-56
2021/11/10 13:08:01;;;;;;;1.80;0.68;;;;;;;;;;5045763;28;20420;-56
2021/11/10 13:10:30;;;;;;;2.00;0.80;;;;;;;;;;5057192;28;20512;-56
2021/11/10 13:12:56;;;;;;;4.97;1.05;;;;;;;;;;5039723;28;20102;-56
2021/11/10 13:15:26;;;;;;;2.20;0.60;;;;;;;;;;5040470;28;20049;-57
2021/11/10 13:17:54;;;;;;;2.35;0.65;;;;;;;;;;5046518;28;20045;-55
2021/11/10 13:20:20;;;;;;;3.30;0.68;;;;;;;;;;5047423;28;20037;-56
2021/11/10 13:22:48;;;;;;;1.95;0.60;;;;;;;;;;5050876;28;20044;-54
2021/11/10 13:25:14;;;;;;;6.13;1.10;;;;;;;;;;5042456;28;20068;-54
2021/11/10 13:27:49;;;;;;;2.33;0.63;;;;;;;;;;5042354;28;21845;-54
2021/11/10 13:30:33;;;;;;;1.73;0.57;;;;;;;;;;5042905;28;20077;-56
2021/11/10 13:33:19;;;;;;;1.17;0.60;;;;;;;;;;5055881;28;20495;-55
2021/11/10 13:36:05;;;;;;;1.60;0.50;;;;;;;;;;5025055;28;20036;-55
2021/11/10 13:39:02;;;;;;;2.05;0.65;;;;;;;;;;5033637;28;20120;-55
2021/11/10 13:41:31;;;;;;;2.10;0.70;;;;;;;;;;5041678;28;20868;-57
2021/11/10 13:44:00;;;;;;;2.20;0.65;;;;;;;;;;5021369;28;20047;-54
2021/11/10 13:46:30;;;;;;;2.80;0.95;;;;;;;;;;5037051;28;20048;-56
2021/11/10 13:48:58;;;;;;;13.45;4.88;;;;;;;;;;5044543;28;20063;-55
2021/11/10 13:51:24;;;;;;;3.13;1.00;;;;;;;;;;5053204;28;20079;-57
2021/11/10 13:54:00;;;;;;;6.55;0.55;;;;;;;;;;5038328;28;20041;-57
2021/11/10 13:56:36;;;;;;;2.53;0.70;;;;;;;;;;5035226;28;20047;-58
2021/11/10 13:59:08;;;;;;;7.07;1.00;;;;;;;;;;5047236;28;20131;-56
2021/11/10 14:01:34;;;;;;;2.20;0.70;;;;;;;;;;5036139;28;20045;-52
2021/11/10 14:03:59;;;;;;;3.65;0.75;;;;;;;;;;5052307;28;20036;-55
2021/11/10 14:06:25;;;;;;;3.38;0.80;;;;;;;;;;5057515;28;20115;-53
2021/11/10 14:09:07;;;;;;;4.50;0.82;;;;;;;;;;5044899;28;20720;-56
2021/11/10 14:11:33;;;;;;;1.95;0.70;;;;;;;;;;5036823;28;20052;-57
2021/11/10 14:13:58;;;;;;;2.65;0.80;;;;;;;;;;5038605;28;20033;-55
2021/11/10 14:16:25;;;;;;;1.95;0.60;;;;;;;;;;5037178;28;20126;-54
2021/11/10 14:18:50;;;;;;;2.65;0.70;;;;;;;;;;5036126;28;20041;-56
2021/11/10 14:21:24;;;;;;;3.40;0.85;;;;;;;;;;5044735;28;20143;-57
2021/11/10 14:23:57;;;;;;;1.98;0.88;;;;;;;;;;5056657;28;20044;-57
2021/11/10 14:26:24;;;;;;;1.73;0.60;;;;;;;;;;5055024;28;20650;-54
2021/11/10 14:28:51;;;;;;;2.88;0.80;;;;;;;;;;5036539;28;20051;-56
2021/11/10 14:31:20;;;;;;;2.13;0.80;;;;;;;;;;5040246;28;20120;-55
2021/11/10 14:33:56;;;;;;;2.42;0.90;;;;;;;;;;5044094;28;20741;-55
2021/11/10 14:36:22;;;;;;;6.50;1.10;;;;;;;;;;5056881;28;20477;-56
2021/11/10 14:38:49;;;;;;;1.95;0.60;;;;;;;;;;5045584;28;20060;-56
2021/11/10 14:41:16;;;;;;;3.25;0.85;;;;;;;;;;5034536;28;20047;-55
2021/11/10 14:43:52;;;;;;;2.05;0.70;;;;;;;;;;5057441;28;20061;-54
2021/11/10 14:46:39;;;;;;;3.03;0.70;;;;;;;;;;5046215;28;20032;-56
2021/11/10 14:49:11;;;;;;;8.80;1.10;;;;;;;;;;5043416;28;22408;-54
2021/11/10 14:51:57;;;;;;;7.32;0.80;;;;;;;;;;5037931;28;20064;-54